aussie ACE2'S WEATHER STATIONaussie

Speaker Icon Turns Ambient Background Sounds ON/OFF
Select which page style from below(a cookie will remember your selection for future use for style)
Standard Style Theme Current Conditions Style Changer

Latitude S 35° 06' 39"   Longitude E 138° 31' 40"   Elevation 102 m

OBSERVATIONS  0 - 24  HOURS

00-24 HOURS 24-48 HOURS 48-72 HOURS 72-96 HOURS 96-120 HOURS Navigation Menu

Date/Time
WST
temperature
°C
Dew Point
°C
Humidity
%
Wind Speed
km/h
Wind Gust
km/h
Wind
Direction
Barometer
mb
Rain Today
mm
20/05:00pm 19.2 5.3 40 6.1 15.8 1013.2 0.0
20/04:30pm 20.3 5.5 38 6.1 15.8 1013.2 0.0
20/04:00pm 19.5 5.6 40 11.2 20.9 1013.2 0.0
20/03:30pm 19.4 4.7 38 8.6 17.3 1013.2 0.0
20/03:00pm 19.6 4.5 37 13.3 17.3 1013.2 0.0
20/02:30pm 19.3 5.4 40 8.6 23.4 1013.2 0.0
20/02:00pm 19.3 5.4 40 7.2 18.4 1013.2 0.0
20/01:30pm 18.8 5.3 41 6.1 19.4 1013.2 0.0
20/01:00pm 19.1 5.2 40 6.1 18.4 1013.2 0.0
20/12:30pm 18.9 5.0 40 7.2 17.3 1013.2 0.0
20/12:00pm 19.7 4.6 37 8.6 18.4 1013.2 0.0
20/11:30am 18.3 5.2 42 9.7 15.8 1013.2 0.0
20/11:00am 16.3 7.0 54 7.2 17.3 1013.2 0.0
20/10:30am 15.6 5.8 52 3.6 14.8 1013.2 0.0
20/10:00am 16.2 5.8 50 11.2 14.8 1013.2 0.0
20/09:30am 16.3 4.4 45 6.1 17.3 1013.2 0.0
20/09:00am 15.7 3.5 44 14.8 18.4 1013.2 0.0
20/08:30am 14.4 4.7 52 7.2 17.3 1013.2 0.0
20/08:00am 13.5 6.8 64 6.1 14.8 1013.2 0.0
20/07:30am 12.2 7.5 73 2.5 7.2 1013.2 0.0
20/07:00am 11.5 7.2 75 2.5 7.2 1013.2 0.0
20/06:30am 11.1 6.8 75 2.5 6.1 1013.2 0.0
20/06:00am 10.4 7.1 80 0.0 2.5 1013.2 0.0
20/05:30am 9.2 6.6 84 0.0 2.5 1013.2 0.0
20/05:00am 9.2 6.1 81 0.0 0.0 1013.2 0.0
20/04:30am 9.9 6.6 80 0.0 1.1 1013.2 0.0
20/04:00am 9.9 6.6 80 0.0 2.5 1013.2 0.0
20/03:30am 10.6 7.3 80 1.1 6.1 1013.2 0.0
20/03:00am 10.8 7.1 78 1.1 3.6 1013.2 0.0
20/02:30am 11.8 7.5 75 5.0 12.2 1013.2 0.0
20/02:00am 11.6 7.3 75 5.0 13.3 1013.2 0.0
20/01:30am 11.0 6.5 74 1.1 5.0 1013.2 0.0
20/01:00am 10.7 6.5 75 0.0 3.6 1013.2 0.0
20/12:30am 11.2 6.7 74 3.6 7.2 1013.2 0.0
20/12:00am 12.1 7.2 72 3.6 7.2 1013.2 0.0
19/11:30pm 12.5 7.2 70 5.0 13.3 1013.2 1.5
19/11:00pm 12.8 7.5 70 6.1 12.2 1013.2 1.5
19/10:30pm 13.0 7.4 69 6.1 9.7 1013.2 1.5
19/10:00pm 13.3 7.1 66 5.0 11.2 1013.2 1.5
19/09:30pm 13.2 7.2 67 5.0 9.7 1013.2 1.5
19/09:00pm 13.5 7.1 65 2.5 7.2 1013.2 1.5
19/08:30pm 14.0 7.1 63 2.5 8.6 1013.2 1.5
19/08:00pm 15.0 7.8 62 6.1 14.8 1013.2 1.5
19/07:30pm 15.9 8.9 63 2.5 8.6 1013.2 1.5
19/07:00pm 17.4 9.8 61 5.0 13.3 1013.2 1.5
19/06:30pm 19.1 9.6 54 9.7 15.8 1013.2 1.5
19/06:00pm 21.1 10.6 51 5.0 8.6 1013.2 1.5
19/05:30pm 21.8 10.9 50 6.1 8.6 1013.2 1.5
19/05:00pm 22.1 11.2 50 2.5 14.8 1013.2 1.5
19/04:30pm 22.9 10.4 45 2.5 15.8 1013.2 1.5

OBSERVATIONS  24 - 48  HOURS

00-24 HOURS 24-48 HOURS 48-72 HOURS 72-96 HOURS 96-120 HOURS Navigation Menu

Date/Time
WST
temperature
°C
Dew Point
°C
Humidity
%
Wind Speed
km/h
Wind Gust
km/h
Wind
Direction
Barometer
mb
Rain Today
mm
19/05:00pm 22.1 11.2 50 2.5 14.8 1013.2 1.5
19/04:30pm 22.9 10.4 45 2.5 15.8 1013.2 1.5
19/04:00pm 23.4 10.5 44 3.6 8.6 1013.2 1.5
19/03:30pm 22.7 8.8 41 2.5 13.3 1013.2 1.5
19/03:00pm 22.5 8.2 40 11.2 17.3 1013.2 1.5
19/02:30pm 21.4 9.6 47 5.0 14.8 1013.2 1.5
19/02:00pm 20.8 9.4 48 9.7 18.4 1013.2 1.5
19/01:30pm 20.4 10.8 54 1.1 15.8 1013.2 1.5
19/01:00pm 19.8 11.3 58 5.0 14.8 1013.2 1.5
19/12:30pm 18.5 10.6 60 1.1 11.2 1013.2 1.5
19/12:00pm 18.0 10.6 62 2.5 20.9 1013.2 1.5
19/11:30am 18.1 10.7 62 11.2 22.0 1013.2 1.5
19/11:00am 18.1 11.4 65 3.6 14.8 1013.2 1.5
19/10:30am 19.2 12.2 64 1.1 15.8 1013.2 1.5
19/10:00am 17.8 12.5 71 6.1 12.2 1013.2 1.5
19/09:30am 17.4 12.7 74 3.6 13.3 1013.2 1.5
19/09:00am 16.8 13.0 78 2.5 8.6 1013.2 1.5
19/08:30am 16.3 13.2 82 6.1 13.3 1013.2 1.5
19/08:00am 16.5 13.6 83 5.0 15.8 1013.2 1.5
19/07:30am 17.5 14.8 84 5.0 12.2 1013.2 1.5
19/07:00am 17.9 15.0 83 5.0 14.8 1013.2 1.5
19/06:30am 18.2 14.9 81 5.0 12.2 1013.2 1.5
19/06:00am 19.3 14.6 74 6.1 18.4 1013.2 1.5
19/05:30am 19.6 14.4 72 6.1 13.3 1013.2 1.5
19/05:00am 19.7 14.1 70 5.0 13.3 1013.2 1.5
19/04:30am 19.1 13.9 72 2.5 13.3 1013.2 1.5
19/04:00am 18.8 14.5 76 5.0 9.7 1013.2 1.5
19/03:30am 19.1 15.2 78 7.2 14.8 1013.2 1.5
19/03:00am 18.9 15.6 81 6.1 9.7 1013.2 1.2
19/02:30am 19.2 15.7 80 3.6 7.2 1013.2 1.2
19/02:00am 19.3 16.2 82 3.6 7.2 1013.2 0.6
19/01:30am 19.4 16.3 82 2.5 6.1 1013.2 0.6
19/01:00am 19.6 15.7 78 0.0 1.1 1013.2 0.6
19/12:30am 20.7 15.3 71 0.0 3.6 1013.2 0.0
19/12:00am 21.3 14.2 64 0.0 2.5 1013.2 0.0
18/11:30pm 20.8 14.2 66 0.0 2.5 1013.2 0.0
18/11:00pm 21.1 14.5 66 1.1 3.6 1013.2 0.0
18/10:30pm 20.8 14.5 67 5.0 6.1 1013.2 0.0
18/10:00pm 20.5 14.9 70 3.6 7.2 1013.2 0.0
18/09:30pm 21.1 15.2 69 9.7 17.3 1013.2 0.0
18/09:00pm 22.3 14.7 62 14.8 20.9 1013.2 0.0
18/08:30pm 25.6 13.8 48 14.8 22.0 1013.2 0.0
18/08:00pm 28.3 11.8 36 2.5 7.2 1013.2 0.0
18/07:30pm 29.3 11.8 34 5.0 7.2 1013.2 0.0
18/07:00pm 30.6 11.6 31 2.5 7.2 1013.2 0.0
18/06:30pm 32.7 9.5 24 5.0 7.2 1013.2 0.0
18/06:00pm 33.0 9.1 23 7.2 9.7 1013.2 0.0
18/05:30pm 34.4 10.3 23 1.1 7.2 1013.2 0.0
18/05:00pm 35.1 10.9 23 3.6 9.7 1013.2 0.0
18/04:30pm 35.2 10.3 22 6.1 11.2 1013.2 0.0

OBSERVATIONS  48 - 72  HOURS

00-24 HOURS 24-48 HOURS 48-72 HOURS 72-96 HOURS 96-120 HOURS Navigation Menu

Date/Time
WST
temperature
°C
Dew Point
°C
Humidity
%
Wind Speed
km/h
Wind Gust
km/h
Wind
Direction
Barometer
mb
Rain Today
mm
18/05:00pm 35.1 10.9 23 3.6 9.7 1013.2 0.0
18/04:30pm 35.2 10.3 22 6.1 11.2 1013.2 0.0
18/04:00pm 34.8 10.6 23 7.2 15.8 1013.2 0.0
18/03:30pm 35.0 10.8 23 3.6 12.2 1013.2 0.0
18/03:00pm 33.7 10.4 24 9.7 17.3 1013.2 0.0
18/02:30pm 32.6 10.6 26 9.7 13.3 1013.2 0.0
18/02:01pm 32.9 10.3 25 12.2 15.8 1013.2 0.0
18/01:30pm 32.4 12.6 30 11.2 18.4 1013.2 0.0
18/01:00pm 31.8 12.6 31 7.2 14.8 1013.2 0.0
18/12:30pm 31.4 12.3 31 15.8 18.4 1013.2 0.0
18/12:00pm 31.0 12.4 32 7.2 15.8 1013.2 0.0
18/11:30am 31.9 13.2 32 7.2 18.4 1013.2 0.0
18/11:00am 32.9 10.9 26 8.6 13.3 1013.2 0.0
18/10:30am 32.0 11.8 29 12.2 20.9 1013.2 0.0
18/10:00am 30.9 11.3 30 7.2 23.4 1013.2 0.0
18/09:30am 30.8 11.3 30 7.2 22.0 1013.2 0.0
18/09:00am 29.8 10.4 30 9.7 18.4 1013.2 0.0
18/08:30am 28.6 9.4 30 13.3 24.5 1013.2 0.0
18/08:00am 27.9 9.2 31 7.2 20.9 1013.2 0.0
18/07:30am 26.9 9.7 34 9.7 19.4 1013.2 0.0
18/07:00am 25.9 9.3 35 14.8 23.4 1013.2 0.0
18/06:30am 25.2 9.1 36 13.3 24.5 1013.2 0.0
18/06:00am 25.2 9.1 36 13.3 23.4 1013.2 0.0
18/05:30am 25.0 9.3 37 9.7 23.4 1013.2 0.0
18/05:00am 25.2 9.1 36 11.2 19.4 1013.2 0.0
18/04:30am 25.1 9.4 37 7.2 17.3 1013.2 0.0
18/04:00am 25.4 9.3 36 7.2 19.4 1013.2 0.0
18/03:30am 25.5 8.9 35 11.2 19.4 1013.2 0.0
18/03:00am 25.7 9.1 35 6.1 18.4 1013.2 0.0
18/02:30am 26.0 8.9 34 9.7 15.8 1013.2 0.0
18/02:00am 26.3 8.8 33 12.2 18.4 1013.2 0.0
18/01:30am 26.6 9.0 33 12.2 18.4 1013.2 0.0
18/01:00am 26.3 9.6 35 6.1 11.2 1013.2 0.0
18/12:30am 26.3 9.6 35 5.0 9.7 1013.2 0.0
18/12:00am 26.1 9.9 36 7.2 8.6 1013.2 0.0
17/11:30pm 26.0 9.8 36 6.1 8.6 1013.2 0.0
17/11:00pm 25.9 9.7 36 6.1 7.2 1013.2 0.0
17/10:30pm 25.8 9.2 35 5.0 6.1 1013.2 0.0
17/10:00pm 26.3 9.2 34 6.1 9.7 1013.2 0.0
17/09:30pm 26.4 9.3 34 3.6 8.6 1013.2 0.0
17/09:00pm 27.1 9.5 33 2.5 7.2 1013.2 0.0
17/08:30pm 27.3 9.6 33 3.6 7.2 1013.2 0.0
17/08:00pm 26.8 9.2 33 1.1 3.6 1013.2 0.0
17/07:30pm 28.3 6.4 25 0.0 3.6 1013.2 0.0
17/07:00pm 30.0 5.3 21 0.0 8.6 1013.2 0.0
17/06:30pm 32.3 6.5 20 6.1 8.6 1013.2 0.0
17/06:00pm 36.2 5.5 15 3.6 8.6 1013.2 0.0
17/05:30pm 36.6 5.8 15 5.0 8.6 1013.2 0.0
17/05:00pm 36.3 5.6 15 5.0 9.7 1013.2 0.0
17/04:30pm 35.7 5.1 15 5.0 9.7 1013.2 0.0

OBSERVATIONS  72 - 96  HOURS

00-24 HOURS 24-48 HOURS 48-72 HOURS 72-96 HOURS 96-120 HOURS Navigation Menu

Date/Time
WST
temperature
°C
Dew Point
°C
Humidity
%
Wind Speed
km/h
Wind Gust
km/h
Wind
Direction
Barometer
mb
Rain Today
mm
17/05:00pm 36.3 5.6 15 5.0 9.7 1013.2 0.0
17/04:30pm 35.7 5.1 15 5.0 9.7 1013.2 0.0
17/04:00pm 34.8 3.4 14 5.0 9.7 1013.2 0.0
17/03:30pm 33.7 2.5 14 5.0 15.8 1013.2 0.0
17/03:00pm 33.0 1.0 13 6.1 15.8 1013.2 0.0
17/02:30pm 32.0 6.3 20 8.6 17.3 1013.2 0.0
17/02:00pm 31.5 6.6 21 11.2 19.4 1013.2 0.0
17/01:30pm 31.0 8.1 24 6.1 18.4 1013.2 0.0
17/01:00pm 31.2 7.0 22 8.6 23.4 1013.2 0.0
17/12:30pm 31.6 8.0 23 8.6 40.0 1013.2 0.0
17/12:00pm 31.4 6.5 21 11.2 29.5 1013.2 0.0
17/11:30am 31.8 6.8 21 18.4 27.0 1013.2 0.0
17/11:00am 31.5 5.9 20 12.2 28.1 1013.2 0.0
17/10:30am 31.3 7.7 23 8.6 19.4 1013.2 0.0
17/10:00am 30.1 6.7 23 8.6 19.4 1013.2 0.0
17/09:30am 29.8 6.5 23 8.6 19.4 1013.2 0.0
17/09:00am 28.7 6.2 24 8.6 18.4 1013.2 0.0
17/08:30am 27.8 6.0 25 7.2 22.0 1013.2 0.0
17/08:00am 27.3 7.7 29 5.0 22.0 1013.2 0.0
17/07:30am 26.3 6.4 28 7.2 19.4 1013.2 0.0
17/07:00am 25.1 6.3 30 9.7 17.3 1013.2 0.0
17/06:30am 24.4 6.2 31 8.6 17.3 1013.2 0.0
17/06:00am 24.6 6.4 31 14.8 18.4 1013.2 0.0
17/05:30am 24.8 6.5 31 14.8 17.3 1013.2 0.0
17/05:00am 25.0 6.7 31 9.7 18.4 1013.2 0.0
17/04:30am 25.0 6.7 31 6.1 19.4 1013.2 0.0
17/04:00am 25.3 7.0 31 9.7 19.4 1013.2 0.0
17/03:30am 25.5 7.1 31 9.7 18.4 1013.2 0.0
17/03:00am 25.3 7.0 31 6.1 14.8 1013.2 0.0
17/02:30am 25.7 6.8 30 7.2 17.3 1013.2 0.0
17/02:00am 36.3 5.6 15 5.0 9.7 1013.2 0.0
17/01:30am 25.3 7.0 31 7.2 13.3 1013.2 0.0
17/01:00am 25.6 7.2 31 7.2 17.3 1013.2 0.0
17/12:30am 24.8 7.5 33 11.2 14.8 1013.2 0.0
17/12:00am 23.5 8.0 37 6.1 11.2 1013.2 0.0
16/11:30pm 23.2 8.9 40 7.2 13.3 1013.2 0.0
16/11:00pm 23.7 8.9 39 8.6 17.3 1013.2 0.0
16/10:30pm 24.0 9.2 39 12.2 15.8 1013.2 0.0
16/10:00pm 24.2 9.4 39 13.3 19.4 1013.2 0.0
16/09:30pm 24.3 9.9 40 12.2 14.8 1013.2 0.0
16/09:00pm 23.8 8.6 38 5.0 7.2 1013.2 0.0
16/08:30pm 25.1 8.2 34 1.1 5.0 1013.2 0.0
16/08:00pm 26.9 7.9 30 3.6 8.6 1013.2 0.0
16/07:30pm 27.7 7.6 28 3.6 8.6 1013.2 0.0
16/07:00pm 29.6 6.3 23 8.6 13.3 1013.2 0.0
16/06:30pm 31.2 7.6 23 7.2 14.8 1013.2 0.0
16/06:00pm 31.6 8.0 23 6.1 14.8 1013.2 0.0
16/05:30pm 32.0 8.3 23 5.0 15.8 1013.2 0.0
16/05:00pm 33.0 7.8 21 8.6 11.2 1013.2 0.0
16/04:30pm 34.2 8.8 21 3.6 9.7 1013.2 0.0

OBSERVATIONS  96 - 120  HOURS

00-24 HOURS 24-48 HOURS 48-72 HOURS 72-96 HOURS 96-120 HOURS Navigation Menu

Date/Time
WST
temperature
°C
Dew Point
°C
Humidity
%
Wind Speed
km/h
Wind Gust
km/h
Wind
Direction
Barometer
mb
Rain Today
mm
16/05:00pm 33.0 7.8 21 8.6 11.2 1013.2 0.0
16/04:30pm 34.2 8.8 21 3.6 9.7 1013.2 0.0
16/04:00pm 33.0 8.5 22 7.2 14.8 1013.2 0.0
16/03:30pm 30.9 11.3 30 7.2 12.2 1013.2 0.0
16/03:00pm 33.9 8.5 21 8.6 9.7 1013.2 0.0
16/02:30pm 33.2 7.2 20 0.0 7.2 1013.2 0.0
16/02:00pm 33.3 7.3 20 6.1 11.2 1013.2 0.0
16/01:30pm 31.9 8.2 23 7.2 9.7 1013.2 0.0
16/01:00pm 32.1 9.6 25 5.0 9.7 1013.2 0.0
16/12:30pm 31.6 8.6 24 6.1 9.7 1013.2 0.0
16/12:00pm 31.1 11.5 30 3.6 8.6 1013.2 0.0
16/11:30am 30.8 9.1 26 7.2 13.3 1013.2 0.0
16/11:00am 29.9 8.9 27 7.2 14.8 1013.2 0.0
16/10:30am 29.5 9.6 29 11.2 14.8 1013.2 0.0
16/10:00am 29.2 8.8 28 11.2 13.3 1013.2 0.0
16/09:30am 28.8 9.5 30 5.0 11.2 1013.2 0.0
16/09:00am 30.1 10.6 30 1.1 6.1 1013.2 0.0
16/08:30am 29.7 11.7 33 0.0 2.5 1013.2 0.0
16/08:00am 28.3 11.4 35 0.0 1.1 1013.2 0.0
16/07:30am 24.0 9.2 39 1.1 2.5 1013.2 0.0
16/07:00am 18.8 8.2 50 0.0 2.5 1013.2 0.0
16/06:30am 19.6 7.0 44 6.1 11.2 1013.2 0.0
16/06:00am 19.5 6.9 44 6.1 8.6 1013.2 0.0
16/05:30am 19.6 6.7 43 5.0 11.2 1013.2 0.0
16/05:00am 18.9 6.4 44 8.6 11.2 1013.2 0.0
16/04:30am 18.3 6.5 46 5.0 10.4 1013.2 0.0
16/04:00am 18.3 7.1 48 8.6 13.3 1013.2 0.0
16/03:30am 18.0 7.7 51 8.6 13.3 1013.2 0.0
16/03:00am 16.5 9.2 62 1.1 6.1 1013.2 0.0
16/02:30am 16.6 10.5 67 7.2 15.8 1013.2 0.0
16/02:00am 16.7 11.2 70 7.2 22.0 1013.2 0.0
16/01:30am 16.4 11.1 71 7.2 17.3 1013.2 0.0
16/01:00am 16.3 11.0 71 7.2 18.4 1013.2 0.0
16/12:30am 16.3 11.3 72 11.2 22.0 1013.2 0.0
16/12:00am 16.1 11.3 73 14.8 23.4 1013.2 0.0
15/11:30pm 16.0 11.2 73 6.1 13.3 1013.2 0.0
15/11:00pm 15.9 11.1 73 7.2 19.4 1013.2 0.0
15/10:30pm 15.8 10.8 72 13.3 19.4 1013.2 0.0
15/10:00pm 15.5 10.3 71 5.0 17.3 1013.2 0.0
15/09:30pm 15.1 9.7 70 6.1 17.3 1013.2 0.0
15/09:00pm 15.0 9.1 68 2.5 12.2 1013.2 0.0
15/08:30pm 15.0 8.5 65 1.1 7.2 1013.2 0.0
15/08:00pm 15.4 8.2 62 2.5 8.6 1013.2 0.0
15/07:30pm 16.3 9.0 62 3.6 9.7 1013.2 0.0
15/07:00pm 18.9 8.6 51 5.0 14.8 1013.2 0.0
15/06:30pm 21.6 9.5 46 7.2 9.7 1013.2 0.0
15/06:00pm 22.4 9.9 45 7.2 15.8 1013.2 0.0
15/05:30pm 23.0 9.4 42 9.7 17.3 1013.2 0.0
15/05:00pm 23.5 10.2 43 9.7 17.3 1013.2 0.0
15/04:30pm 25.0 10.9 41 8.6 15.8 1013.2 0.0

00-24 HOURS 24-48 HOURS 48-72 HOURS 72-96 HOURS 96-120 HOURS Navigation Menu


PLEASE CONSIDER LIKING/SHARING ON FACEBOOK WITH LINK ABOVE
THANK YOU.

Check out my video archive on my YouTube channel which has all my time-lapse videos created
Please feel free to donate to help with improvements and keep this site going with the link below(PayPal)
Cumulus Top Weather Sites World Weather Websites Paulen Top 100 Weatherstation List

Page updated 20/10/2017 5:00 PM
powered by Cumulusv1.9.4 (1099)
Free counters!
bonsai
Member of The Southern Bonsai Club


Speaker Icon Turns Ambient Background Sounds ON/OFF